createdAt,value
2018-05-21T00:09:03.785Z,21.7
2018-05-21T00:19:03.288Z,21.6
2018-05-21T00:29:02.165Z,21.6
2018-05-21T00:39:01.423Z,21.6
2018-05-21T00:49:00.591Z,21.6
2018-05-21T00:58:59.898Z,21.6
2018-05-21T01:08:59.092Z,21.7
2018-05-21T01:18:58.245Z,21.6
2018-05-21T01:28:57.504Z,21.7
2018-05-21T01:38:56.682Z,21.6
2018-05-21T01:48:55.910Z,21.6
2018-05-21T01:58:55.123Z,21.6
2018-05-21T02:08:54.347Z,21.6
2018-05-21T02:18:53.604Z,21.6
2018-05-21T02:28:52.783Z,21.6
2018-05-21T02:38:52.034Z,21.6
2018-05-21T02:48:51.247Z,21.6
2018-05-21T02:58:50.428Z,21.5
2018-05-21T03:08:49.651Z,21.6
2018-05-21T03:18:48.857Z,21.8
2018-05-21T03:28:48.086Z,21.8
2018-05-21T03:38:47.357Z,22
2018-05-21T03:48:46.524Z,22
2018-05-21T03:58:45.741Z,21.9
2018-05-21T04:08:45.255Z,21.6
2018-05-21T04:18:44.216Z,21.3
2018-05-21T04:28:43.500Z,21.2
2018-05-21T04:38:42.640Z,21.3
2018-05-21T04:48:41.882Z,21.4
2018-05-21T04:58:41.062Z,21.6
2018-05-21T05:08:40.259Z,21.8
2018-05-21T05:18:39.522Z,21.9
2018-05-21T05:28:38.782Z,22.1
2018-05-21T05:38:37.952Z,22.2
2018-05-21T05:48:37.149Z,22.3
2018-05-21T05:58:36.413Z,22.3
2018-05-21T06:08:35.572Z,22.4
2018-05-21T06:18:34.816Z,22.4
2018-05-21T06:28:34.020Z,22.4
2018-05-21T06:38:33.228Z,22.5
2018-05-21T06:48:32.493Z,22.6
2018-05-21T06:58:31.665Z,22.6
2018-05-21T07:08:30.907Z,22.6
2018-05-21T07:18:30.445Z,22.6
2018-05-21T07:28:29.300Z,22.7
2018-05-21T07:38:28.560Z,22.7
2018-05-21T07:48:27.763Z,22.7
2018-05-21T07:58:26.976Z,22.7
2018-05-21T08:08:26.238Z,22.7
2018-05-21T08:18:25.396Z,22.8
2018-05-21T08:28:24.646Z,22.7
2018-05-21T08:38:23.935Z,22.6
2018-05-21T08:48:23.187Z,22.6
2018-05-21T08:58:22.367Z,22.6
2018-05-21T09:08:21.496Z,22.5
2018-05-21T09:18:20.739Z,22.4
2018-05-21T09:28:19.914Z,22.4
2018-05-21T09:38:19.302Z,22.4
2018-05-21T09:48:18.358Z,22.4
2018-05-21T09:58:17.631Z,22.4
2018-05-21T10:08:16.939Z,22.5
2018-05-21T10:18:16.103Z,22.5
2018-05-21T10:28:15.296Z,22.5
2018-05-21T10:38:14.552Z,22.6
2018-05-21T10:48:13.673Z,22.6
2018-05-21T10:58:12.914Z,22.5
2018-05-21T11:08:12.140Z,22.4
2018-05-21T11:18:11.372Z,22.4
2018-05-21T11:28:10.596Z,22.4
2018-05-21T11:38:10.091Z,22.4
2018-05-21T11:48:08.996Z,22.4
2018-05-21T11:58:08.227Z,22.5
2018-05-21T12:08:07.493Z,22.6
2018-05-21T12:18:06.657Z,22.6
2018-05-21T12:28:05.857Z,22.6
2018-05-21T12:38:05.461Z,22.6
2018-05-21T12:48:04.289Z,22.6
2018-05-21T12:58:03.508Z,22.6
2018-05-21T13:08:02.850Z,22.6
2018-05-21T13:18:02.289Z,22.6
2018-05-21T13:28:01.205Z,22.7
2018-05-21T13:38:00.410Z,22.8
2018-05-21T13:47:59.631Z,22.8
2018-05-21T13:57:59.190Z,22.8
2018-05-21T14:07:58.064Z,22.8
2018-05-21T14:17:57.544Z,22.9
2018-05-21T14:27:56.483Z,22.9
2018-05-21T14:37:56.016Z,22.9
2018-05-21T14:47:54.898Z,22.9
2018-05-21T14:57:54.167Z,22.9
2018-05-21T15:07:53.383Z,22.9
2018-05-21T15:17:52.839Z,22.9
2018-05-21T15:27:52.158Z,22.9
2018-05-21T15:37:51.031Z,22.9
2018-05-21T15:47:50.209Z,22.9
2018-05-21T15:57:49.468Z,22.9
2018-05-21T16:07:48.688Z,22.9
2018-05-21T16:17:47.991Z,22.8
2018-05-21T16:27:47.182Z,22.8
2018-05-21T16:37:46.336Z,22.8
2018-05-21T16:47:45.545Z,22.8
2018-05-21T16:57:44.889Z,22.8
2018-05-21T17:07:43.988Z,22.8
2018-05-21T17:17:43.225Z,22.6
2018-05-21T17:27:42.494Z,22.4
2018-05-21T17:37:41.665Z,22.5
2018-05-21T17:47:40.892Z,22.6
2018-05-21T17:57:40.060Z,22.6
2018-05-21T18:07:39.341Z,22.7
2018-05-21T18:17:38.537Z,22.7
2018-05-21T18:27:37.915Z,22.7
2018-05-21T18:37:36.945Z,22.8
2018-05-21T18:47:36.155Z,22.8
2018-05-21T18:57:35.412Z,22.8
2018-05-21T19:07:34.934Z,22.8
2018-05-21T19:17:33.853Z,22.8
2018-05-21T19:27:33.070Z,22.5
2018-05-21T19:37:32.303Z,22.5
2018-05-21T19:47:31.473Z,22.5
2018-05-21T19:57:30.703Z,22.5
2018-05-21T20:07:29.947Z,22.4
2018-05-21T20:17:29.168Z,22.1
2018-05-21T20:27:28.344Z,21.9
2018-05-21T20:37:27.576Z,21.7
2018-05-21T20:47:26.829Z,21.5
2018-05-21T20:57:26.044Z,21.4
2018-05-21T21:07:25.413Z,21.3
2018-05-21T21:17:24.440Z,21.3
2018-05-21T21:27:23.667Z,21.2
2018-05-21T21:37:23.037Z,21.1
2018-05-21T21:47:22.097Z,21
2018-05-21T21:57:21.352Z,21
2018-05-21T22:07:20.729Z,20.9
2018-05-21T22:17:19.788Z,20.9
2018-05-21T22:27:18.983Z,20.8
2018-05-21T22:37:18.191Z,20.7
2018-05-21T22:47:17.730Z,20.6
2018-05-21T22:57:16.715Z,20.4
2018-05-21T23:07:15.838Z,20.3
2018-05-21T23:17:15.056Z,20.1
2018-05-21T23:27:14.557Z,19.9
2018-05-21T23:37:13.489Z,19.8
2018-05-21T23:47:12.748Z,19.7
2018-05-21T23:57:12.117Z,19.6
